Time;durP1;ratioP1;P1;durP2;ratioP2;P2;SDS_P1;SDS_P2;PMS_P1;PMS_P2;Temp;Humidity;BMP_temperature;BMP_pressure;BME280_temperature;BME280_humidity;BME280_pressure;Samples;Min_cycle;Max_cycle;Signal;HPM_P1;HPM_P2
2023/08/02 00:02:09;;;;;;;0.30;0.30;;;;;;;16.95;87.75;94805.34;4348329;32;20272;-65
2023/08/02 00:04:34;;;;;;;0.50;0.50;;;;;;;17.14;87.28;94808.09;4354442;32;20208;-65
2023/08/02 00:07:01;;;;;;;0.97;0.97;;;;;;;17.11;87.69;94810.69;4354420;32;20201;-65
2023/08/02 00:09:27;;;;;;;1.47;0.47;;;;;;;17.04;87.75;94810.53;4340180;32;20264;-65
2023/08/02 00:11:52;;;;;;;1.23;0.60;;;;;;;17.00;87.88;94813.13;4353502;32;20184;-65
2023/08/02 00:14:18;;;;;;;0.50;0.50;;;;;;;16.97;88.32;94816.50;4355852;32;20322;-65
2023/08/02 00:16:43;;;;;;;0.17;0.17;;;;;;;17.07;87.95;94812.50;4344578;32;20189;-65
2023/08/02 00:19:08;;;;;;;0.20;0.20;;;;;;;16.99;88.08;94808.91;4353619;32;20232;-65
2023/08/02 00:21:34;;;;;;;0.97;0.97;;;;;;;16.84;88.44;94813.09;4356878;32;20203;-65
2023/08/02 00:23:59;;;;;;;0.20;0.20;;;;;;;16.77;88.82;94807.59;4344827;32;20204;-64
2023/08/02 00:26:25;;;;;;;0.50;0.50;;;;;;;16.67;89.32;94809.97;4354123;32;20188;-65
2023/08/02 00:28:50;;;;;;;0.30;0.30;;;;;;;16.69;89.08;94807.75;4358085;32;20196;-65
2023/08/02 00:31:15;;;;;;;1.87;1.07;;;;;;;16.78;88.87;94808.38;4358499;32;20220;-65
2023/08/02 00:33:41;;;;;;;1.23;1.13;;;;;;;16.74;88.28;94802.91;4344364;32;20252;-65
2023/08/02 00:36:06;;;;;;;0.47;0.47;;;;;;;16.86;88.49;94801.28;4342250;32;20190;-65
2023/08/02 00:38:32;;;;;;;0.37;0.37;;;;;;;16.89;87.90;94803.25;4355645;32;20185;-65
2023/08/02 00:41:07;;;;;;;0.50;0.50;;;;;;;16.71;88.37;94802.81;4349605;32;20199;-65
2023/08/02 00:43:40;;;;;;;0.27;0.27;;;;;;;16.62;88.80;94808.34;4342600;32;20184;-65
2023/08/02 00:46:07;;;;;;;0.43;0.43;;;;;;;16.72;88.27;94802.47;4342497;32;20215;-65
2023/08/02 00:48:33;;;;;;;0.30;0.30;;;;;;;16.82;87.91;94819.97;4337582;32;20173;-65
2023/08/02 00:50:59;;;;;;;0.47;0.47;;;;;;;16.76;87.83;94815.97;4330108;32;20203;-65
2023/08/02 00:53:24;;;;;;;0.30;0.30;;;;;;;16.65;87.79;94809.56;4361618;32;20192;-65
2023/08/02 00:55:50;;;;;;;0.53;0.53;;;;;;;16.77;87.53;94807.59;4345099;32;20193;-65
2023/08/02 00:58:15;;;;;;;1.70;0.83;;;;;;;16.71;87.27;94794.78;4342975;32;20243;-65
2023/08/02 01:00:41;;;;;;;0.43;0.43;;;;;;;16.88;86.78;94797.13;4343379;32;20208;-65
2023/08/02 01:03:06;;;;;;;3.43;1.00;;;;;;;16.96;86.11;94788.16;4355931;32;20209;-64
2023/08/02 01:05:38;;;;;;;0.33;0.33;;;;;;;16.99;85.68;94794.72;4343662;32;20199;-65
2023/08/02 01:08:10;;;;;;;0.30;0.30;;;;;;;16.99;85.11;94795.50;4344361;32;20242;-64
2023/08/02 01:10:45;;;;;;;0.93;0.93;;;;;;;16.84;85.27;94790.91;4350733;32;20189;-65
2023/08/02 01:13:14;;;;;;;0.53;0.53;;;;;;;16.79;84.94;94794.63;4343830;32;20181;-65
2023/08/02 01:15:39;;;;;;;0.40;0.40;;;;;;;16.72;85.21;94791.75;4353554;32;20193;-65
2023/08/02 01:18:05;;;;;;;0.40;0.40;;;;;;;16.88;85.00;94786.41;4344647;32;20234;-65
2023/08/02 01:20:30;;;;;;;0.63;0.63;;;;;;;16.83;84.70;94784.00;4340715;32;20188;-64
2023/08/02 01:22:56;;;;;;;0.20;0.20;;;;;;;16.77;84.62;94780.03;4338293;32;20181;-64
2023/08/02 01:25:23;;;;;;;1.00;0.57;;;;;;;16.86;84.55;94772.56;4324400;32;20189;-65
2023/08/02 01:27:56;;;;;;;0.30;0.30;;;;;;;16.83;84.71;94774.03;4335571;32;20204;-64
2023/08/02 01:30:26;;;;;;;1.03;1.03;;;;;;;16.64;84.98;94765.13;4334972;32;20181;-65
2023/08/02 01:32:53;;;;;;;0.90;0.53;;;;;;;16.69;84.92;94768.34;4354531;32;20207;-65
2023/08/02 01:35:19;;;;;;;0.27;0.27;;;;;;;16.69;84.61;94756.84;4341678;32;20264;-65
2023/08/02 01:37:45;;;;;;;0.30;0.30;;;;;;;16.69;84.67;94759.53;4341976;32;20185;-64
2023/08/02 01:40:11;;;;;;;0.77;0.63;;;;;;;16.78;84.23;94757.47;4345835;32;20203;-65
2023/08/02 01:42:36;;;;;;;0.67;0.67;;;;;;;16.81;83.98;94746.84;4339911;32;20296;-65
2023/08/02 01:45:02;;;;;;;0.50;0.50;;;;;;;16.86;83.70;94737.75;4339475;32;20190;-64
2023/08/02 01:47:27;;;;;;;0.50;0.50;;;;;;;16.89;83.46;94739.72;4314545;32;20221;-65
2023/08/02 01:49:53;;;;;;;0.30;0.30;;;;;;;16.94;83.26;94730.66;4350791;32;20203;-64
2023/08/02 01:52:19;;;;;;;0.50;0.50;;;;;;;16.80;83.46;94728.44;4351526;32;20185;-65
2023/08/02 01:54:45;;;;;;;0.40;0.40;;;;;;;16.82;83.74;94723.50;4351544;32;20245;-65
2023/08/02 01:57:10;;;;;;;0.57;0.57;;;;;;;16.75;84.00;94723.34;4329721;32;20193;-65
2023/08/02 01:59:36;;;;;;;0.53;0.53;;;;;;;16.80;83.58;94704.31;4334734;32;20235;-64
2023/08/02 02:02:01;;;;;;;0.50;0.50;;;;;;;16.77;83.82;94708.47;4335689;32;20208;-64
2023/08/02 02:04:26;;;;;;;0.40;0.40;;;;;;;16.68;83.95;94704.41;4350428;32;20185;-65
2023/08/02 02:06:52;;;;;;;0.27;0.27;;;;;;;16.77;83.66;94694.28;4343502;32;20189;-65
2023/08/02 02:09:17;;;;;;;0.23;0.23;;;;;;;16.61;84.17;94706.91;4344504;32;20275;-64
2023/08/02 02:11:42;;;;;;;0.30;0.30;;;;;;;16.68;84.13;94705.19;4353083;32;20209;-64
2023/08/02 02:14:09;;;;;;;0.67;0.47;;;;;;;16.65;83.99;94697.06;4338257;32;20200;-65
2023/08/02 02:16:34;;;;;;;0.40;0.40;;;;;;;16.70;83.79;94699.47;4338701;32;20211;-64
2023/08/02 02:18:59;;;;;;;0.57;0.57;;;;;;;16.55;84.43;94697.56;4346134;32;20268;-64
2023/08/02 02:21:25;;;;;;;0.93;0.80;;;;;;;16.52;84.92;94700.94;4344849;32;20249;-65
2023/08/02 02:23:50;;;;;;;0.73;0.73;;;;;;;16.69;83.94;94684.53;4343212;32;20185;-64
2023/08/02 02:26:15;;;;;;;0.63;0.63;;;;;;;16.72;83.80;94675.81;4333532;32;20200;-64
2023/08/02 02:28:40;;;;;;;0.50;0.50;;;;;;;16.68;83.93;94685.66;4336313;32;20204;-64
2023/08/02 02:31:06;;;;;;;0.23;0.23;;;;;;;16.64;84.23;94690.16;4341578;32;20247;-64
2023/08/02 02:33:31;;;;;;;0.30;0.30;;;;;;;16.58;84.19;94681.59;4335688;32;20220;-64
2023/08/02 02:35:56;;;;;;;0.50;0.50;;;;;;;16.59;84.22;94669.75;4354033;32;20235;-65
2023/08/02 02:38:22;;;;;;;0.33;0.33;;;;;;;16.57;84.43;94652.47;4345553;32;20193;-64
2023/08/02 02:40:47;;;;;;;0.60;0.60;;;;;;;16.61;84.24;94656.78;4346078;32;20275;-65
2023/08/02 02:43:12;;;;;;;0.90;0.90;;;;;;;16.62;84.25;94658.34;4345861;32;20181;-64
2023/08/02 02:45:37;;;;;;;0.60;0.60;;;;;;;16.46;84.76;94658.34;4348642;32;20176;-64
2023/08/02 02:48:03;;;;;;;0.60;0.60;;;;;;;16.50;84.52;94659.19;4337590;32;20236;-65
2023/08/02 02:50:28;;;;;;;0.40;0.40;;;;;;;16.37;85.26;94665.78;4338436;32;20252;-64
2023/08/02 02:52:53;;;;;;;0.50;0.50;;;;;;;16.43;85.02;94661.69;4333035;32;20243;-65
2023/08/02 02:55:19;;;;;;;1.30;0.67;;;;;;;16.38;85.53;94658.53;4331523;32;20192;-65
2023/08/02 02:57:44;;;;;;;0.97;0.97;;;;;;;16.30;85.91;94659.47;4330815;32;20201;-64
2023/08/02 03:00:10;;;;;;;0.40;0.40;;;;;;;16.26;85.69;94648.66;4351502;32;20181;-64
2023/08/02 03:02:36;;;;;;;16.73;1.03;;;;;;;16.40;85.30;94654.38;4331257;32;20193;-64
2023/08/02 03:05:01;;;;;;;0.70;0.57;;;;;;;16.40;84.91;94659.75;4332346;32;20211;-64
2023/08/02 03:07:26;;;;;;;1.17;1.17;;;;;;;16.15;85.80;94672.50;4343526;32;20184;-64
2023/08/02 03:09:52;;;;;;;0.60;0.60;;;;;;;16.13;86.32;94645.31;4350864;32;20181;-64
2023/08/02 03:12:17;;;;;;;0.50;0.50;;;;;;;16.22;86.00;94641.66;4347218;32;20287;-64
2023/08/02 03:14:43;;;;;;;0.30;0.30;;;;;;;16.12;86.21;94641.09;4339307;32;20189;-65
2023/08/02 03:17:08;;;;;;;0.27;0.27;;;;;;;16.09;85.87;94638.31;4342600;32;20177;-64
2023/08/02 03:19:33;;;;;;;0.40;0.40;;;;;;;16.03;86.35;94619.06;4347205;32;20182;-64
2023/08/02 03:21:59;;;;;;;0.40;0.40;;;;;;;16.02;86.39;94622.06;4355153;32;20236;-65
2023/08/02 03:24:24;;;;;;;0.60;0.60;;;;;;;15.89;86.98;94618.69;4344093;32;20180;-64
2023/08/02 03:26:49;;;;;;;0.97;0.97;;;;;;;15.92;87.06;94622.59;4339826;32;20177;-64
2023/08/02 03:29:15;;;;;;;0.40;0.40;;;;;;;16.00;86.80;94627.00;4338275;32;20249;-65
2023/08/02 03:31:40;;;;;;;0.43;0.43;;;;;;;16.00;86.71;94625.09;4340861;32;20189;-65
2023/08/02 03:34:05;;;;;;;4.07;0.70;;;;;;;15.98;86.74;94626.56;4340799;32;20196;-65
2023/08/02 03:36:31;;;;;;;0.30;0.30;;;;;;;15.71;87.50;94623.59;4336894;32;20181;-64
2023/08/02 03:38:56;;;;;;;1.03;0.60;;;;;;;15.48;88.54;94614.53;4335612;32;20193;-64
2023/08/02 03:41:21;;;;;;;1.27;1.17;;;;;;;15.43;88.74;94612.87;4354299;32;20194;-64
2023/08/02 03:43:46;;;;;;;0.50;0.50;;;;;;;15.43;88.84;94612.13;4333274;32;20228;-64
2023/08/02 03:46:12;;;;;;;0.97;0.97;;;;;;;15.21;89.36;94621.44;4339300;32;20180;-64
2023/08/02 03:48:37;;;;;;;0.80;0.80;;;;;;;15.05;90.29;94618.72;4335635;32;20284;-64
2023/08/02 03:51:03;;;;;;;0.20;0.20;;;;;;;15.06;90.43;94617.59;4332294;32;20212;-64
2023/08/02 03:53:30;;;;;;;0.63;0.63;;;;;;;15.20;89.86;94619.09;4337261;32;20200;-64
2023/08/02 03:55:55;;;;;;;0.80;0.80;;;;;;;15.17;89.86;94620.59;4337207;32;20229;-64
2023/08/02 03:58:20;;;;;;;0.80;0.80;;;;;;;15.25;89.61;94616.19;4345868;32;20227;-64
2023/08/02 04:00:46;;;;;;;1.40;0.90;;;;;;;15.24;89.57;94610.06;4348295;32;20391;-64
2023/08/02 04:03:11;;;;;;;1.33;0.90;;;;;;;15.08;89.78;94601.22;4341191;32;20219;-64
2023/08/02 04:05:37;;;;;;;0.37;0.37;;;;;;;15.40;88.38;94602.88;4337716;32;20247;-64
2023/08/02 04:08:02;;;;;;;0.57;0.50;;;;;;;15.53;87.48;94605.50;4338843;32;20185;-64
2023/08/02 04:10:27;;;;;;;0.23;0.23;;;;;;;15.45;87.90;94599.97;4339841;32;20235;-64
2023/08/02 04:12:53;;;;;;;0.60;0.60;;;;;;;15.24;88.62;94598.59;4332886;32;20252;-65
2023/08/02 04:15:18;;;;;;;0.63;0.63;;;;;;;15.26;88.65;94599.06;4346845;32;20207;-65
2023/08/02 04:17:44;;;;;;;0.50;0.50;;;;;;;15.45;88.06;94588.50;4351219;32;20208;-64
2023/08/02 04:20:10;;;;;;;0.30;0.17;;;;;;;15.65;87.00;94590.19;4336832;32;20186;-64
2023/08/02 04:22:35;;;;;;;0.90;0.90;;;;;;;15.66;86.89;94594.44;4351465;32;20209;-65
2023/08/02 04:25:02;;;;;;;1.33;0.93;;;;;;;15.77;86.11;94595.50;4338592;32;20260;-64
2023/08/02 04:27:28;;;;;;;0.40;0.40;;;;;;;15.80;86.04;94592.09;4342619;32;20181;-64
2023/08/02 04:29:53;;;;;;;0.80;0.77;;;;;;;15.73;86.35;94591.94;4343656;32;20181;-65
2023/08/02 04:32:18;;;;;;;0.53;0.53;;;;;;;15.71;86.38;94588.84;4351908;32;20279;-65
2023/08/02 04:34:44;;;;;;;1.10;1.10;;;;;;;15.78;86.20;94591.69;4338103;32;20219;-64
2023/08/02 04:37:09;;;;;;;0.70;0.70;;;;;;;15.86;85.92;94587.28;4347729;32;20173;-64
2023/08/02 04:39:34;;;;;;;0.40;0.40;;;;;;;15.88;85.90;94574.34;4349715;32;20212;-64
2023/08/02 04:42:03;;;;;;;0.30;0.30;;;;;;;15.71;86.29;94580.81;4340226;32;20199;-64
2023/08/02 04:44:28;;;;;;;0.37;0.37;;;;;;;15.81;86.09;94574.94;4328724;32;20181;-64
2023/08/02 04:46:54;;;;;;;0.57;0.57;;;;;;;15.97;85.42;94572.28;4342829;32;20265;-65
2023/08/02 04:49:19;;;;;;;0.53;0.53;;;;;;;15.92;85.58;94574.44;4358624;32;20181;-64
2023/08/02 04:51:45;;;;;;;0.97;0.97;;;;;;;16.11;84.87;94569.16;4343122;32;20295;-65
2023/08/02 04:54:10;;;;;;;0.87;0.67;;;;;;;16.08;84.59;94567.97;4350202;32;20203;-65
2023/08/02 04:56:35;;;;;;;0.77;0.77;;;;;;;16.05;84.76;94551.81;4333816;32;20288;-64
2023/08/02 04:59:01;;;;;;;0.73;0.73;;;;;;;16.01;84.76;94548.28;4333791;32;20181;-64
2023/08/02 05:01:26;;;;;;;0.50;0.50;;;;;;;15.99;84.80;94545.19;4359053;32;20189;-64
2023/08/02 05:03:52;;;;;;;0.40;0.40;;;;;;;16.04;84.42;94539.56;4346061;32;20279;-64
2023/08/02 05:06:18;;;;;;;2.80;0.77;;;;;;;16.02;84.53;94534.56;4345672;32;23248;-65
2023/08/02 05:08:43;;;;;;;0.70;0.70;;;;;;;16.11;84.09;94534.38;4346525;32;20204;-65
2023/08/02 05:11:08;;;;;;;2.33;0.60;;;;;;;16.08;84.47;94532.41;4352585;32;20200;-64
2023/08/02 05:13:34;;;;;;;5.07;0.80;;;;;;;16.10;84.44;94524.81;4335602;32;20196;-64
2023/08/02 05:16:00;;;;;;;0.30;0.30;;;;;;;16.09;84.28;94531.28;4353870;32;20303;-64
2023/08/02 05:18:25;;;;;;;1.73;0.67;;;;;;;16.29;83.83;94529.44;4343895;32;20189;-65
2023/08/02 05:20:52;;;;;;;0.70;0.70;;;;;;;16.33;83.78;94531.06;4351108;32;20173;-65
2023/08/02 05:23:18;;;;;;;0.70;0.70;;;;;;;16.22;84.33;94523.91;4343614;32;22688;-65
2023/08/02 05:25:43;;;;;;;0.77;0.77;;;;;;;16.32;84.23;94524.16;4348390;32;20177;-65
2023/08/02 05:28:09;;;;;;;0.77;0.77;;;;;;;16.35;84.33;94525.38;4341538;32;20181;-64
2023/08/02 05:30:36;;;;;;;0.50;0.50;;;;;;;16.46;83.89;94523.69;4353737;32;20181;-65
2023/08/02 05:33:01;;;;;;;1.70;1.17;;;;;;;16.44;84.20;94521.34;4352902;32;20192;-65
2023/08/02 05:35:29;;;;;;;1.00;1.00;;;;;;;16.45;83.88;94514.88;4338743;32;20260;-64
2023/08/02 05:37:55;;;;;;;0.57;0.57;;;;;;;16.58;83.80;94517.44;4362613;32;20230;-65
2023/08/02 05:40:20;;;;;;;0.40;0.40;;;;;;;16.60;83.65;94513.28;4347233;32;20181;-65
2023/08/02 05:42:45;;;;;;;1.00;0.30;;;;;;;16.66;82.99;94513.81;4344791;32;20181;-67
2023/08/02 05:45:11;;;;;;;1.70;0.37;;;;;;;16.64;82.43;94518.72;4351885;32;20197;-65
2023/08/02 05:47:36;;;;;;;0.97;0.97;;;;;;;16.71;82.19;94505.50;4348809;32;20188;-65
2023/08/02 05:50:02;;;;;;;1.13;1.03;;;;;;;16.86;81.97;94511.91;4342974;32;20205;-65
2023/08/02 05:52:28;;;;;;;0.37;0.37;;;;;;;16.79;82.04;94507.97;4345916;32;20180;-67
2023/08/02 05:54:53;;;;;;;0.63;0.63;;;;;;;16.88;81.36;94510.44;4345138;32;20199;-67
2023/08/02 05:57:18;;;;;;;0.83;0.83;;;;;;;16.79;81.66;94499.16;4344757;32;20241;-64
2023/08/02 05:59:44;;;;;;;0.60;0.60;;;;;;;16.81;81.36;94489.66;4341049;32;20181;-65
2023/08/02 06:02:09;;;;;;;0.50;0.50;;;;;;;16.88;81.14;94491.69;4349091;32;20231;-65
2023/08/02 06:04:36;;;;;;;0.30;0.30;;;;;;;16.89;81.33;94492.44;4344845;32;20204;-65
2023/08/02 06:07:03;;;;;;;1.03;0.80;;;;;;;16.89;81.00;94485.19;4340940;32;20173;-64
2023/08/02 06:09:28;;;;;;;0.60;0.60;;;;;;;16.94;80.82;94484.91;4351395;32;20222;-64
2023/08/02 06:11:53;;;;;;;0.93;0.93;;;;;;;16.98;80.92;94483.09;4339068;32;20185;-64
2023/08/02 06:14:19;;;;;;;0.20;0.20;;;;;;;17.01;80.67;94479.69;4343621;32;20192;-64
2023/08/02 06:16:44;;;;;;;0.23;0.23;;;;;;;17.03;80.73;94488.16;4339777;32;20316;-65
2023/08/02 06:19:10;;;;;;;0.30;0.30;;;;;;;17.01;80.30;94481.59;4345472;32;20294;-66
2023/08/02 06:21:36;;;;;;;1.27;0.60;;;;;;;17.05;79.78;94488.56;4348183;32;20234;-65
2023/08/02 06:24:01;;;;;;;0.60;0.60;;;;;;;17.01;80.28;94492.31;4349485;32;20212;-65
2023/08/02 06:26:27;;;;;;;0.40;0.40;;;;;;;16.91;80.42;94490.97;4344841;32;20249;-65
2023/08/02 06:28:53;;;;;;;1.80;0.90;;;;;;;16.99;80.18;94498.03;4336400;32;20223;-65
2023/08/02 06:31:18;;;;;;;0.60;0.60;;;;;;;17.03;80.26;94492.75;4344645;32;20291;-65
2023/08/02 06:33:44;;;;;;;0.30;0.30;;;;;;;17.05;80.49;94495.81;4340127;32;20236;-65
2023/08/02 06:36:09;;;;;;;0.67;0.57;;;;;;;17.14;79.93;94499.84;4338688;32;20269;-64
2023/08/02 06:38:34;;;;;;;0.60;0.60;;;;;;;17.11;80.33;94499.78;4349802;32;20180;-67
2023/08/02 06:41:00;;;;;;;1.00;0.90;;;;;;;17.13;80.26;94503.66;4336944;32;20227;-64
2023/08/02 06:43:25;;;;;;;0.60;0.60;;;;;;;17.18;80.56;94506.06;4337500;32;20173;-65
2023/08/02 06:45:51;;;;;;;3.77;1.37;;;;;;;17.18;80.76;94513.31;4332225;32;20217;-67
2023/08/02 06:48:18;;;;;;;0.30;0.30;;;;;;;17.16;81.68;94512.87;4338889;32;20208;-67
2023/08/02 06:50:44;;;;;;;0.70;0.70;;;;;;;17.20;81.99;94513.75;4338078;32;20189;-67
2023/08/02 06:53:09;;;;;;;0.53;0.53;;;;;;;17.16;82.79;94529.75;4343327;32;20243;-67
2023/08/02 06:55:34;;;;;;;0.20;0.20;;;;;;;17.23;82.84;94520.31;4338391;32;20239;-67
2023/08/02 06:58:00;;;;;;;0.70;0.70;;;;;;;17.27;83.55;94521.91;4344121;32;20193;-67
2023/08/02 07:00:25;;;;;;;0.80;0.80;;;;;;;17.24;83.91;94521.84;4335816;32;20181;-67
2023/08/02 07:02:50;;;;;;;0.20;0.20;;;;;;;17.21;84.70;94526.00;4347207;32;20173;-67
2023/08/02 07:05:16;;;;;;;0.83;0.63;;;;;;;17.24;85.17;94530.66;4343100;32;20201;-67
2023/08/02 07:07:41;;;;;;;0.67;0.67;;;;;;;17.14;86.81;94523.97;4343267;32;20189;-67
2023/08/02 07:10:06;;;;;;;0.47;0.47;;;;;;;17.08;88.17;94528.06;4353932;32;20196;-67
2023/08/02 07:12:32;;;;;;;0.70;0.70;;;;;;;17.02;88.27;94526.03;4352056;32;20196;-66
2023/08/02 07:14:57;;;;;;;0.30;0.30;;;;;;;16.99;89.27;94532.09;4346844;32;20192;-67
2023/08/02 07:17:22;;;;;;;1.17;1.10;;;;;;;17.12;88.55;94528.91;4341169;32;20200;-64
2023/08/02 07:19:48;;;;;;;0.43;0.43;;;;;;;17.06;89.18;94524.94;4352308;32;20248;-64
2023/08/02 07:22:17;;;;;;;2.90;0.77;;;;;;;17.10;89.10;94522.34;4338057;32;20177;-64
2023/08/02 07:24:45;;;;;;;0.40;0.40;;;;;;;17.15;89.20;94525.53;4344300;32;20246;-64
2023/08/02 07:27:10;;;;;;;0.87;0.83;;;;;;;17.11;89.81;94523.91;4336893;32;20189;-64
2023/08/02 07:29:36;;;;;;;0.40;0.40;;;;;;;17.21;90.40;94525.25;4353674;32;20199;-64
2023/08/02 07:32:01;;;;;;;0.70;0.70;;;;;;;17.10;90.52;94525.78;4350599;32;20299;-64
2023/08/02 07:34:26;;;;;;;0.83;0.83;;;;;;;17.18;90.93;94530.19;4349868;32;20181;-65
2023/08/02 07:36:52;;;;;;;2.30;0.83;;;;;;;17.27;90.21;94529.94;4338296;32;20196;-64
2023/08/02 07:39:17;;;;;;;0.60;0.60;;;;;;;17.21;91.44;94522.56;4336203;32;20266;-64
2023/08/02 07:41:42;;;;;;;0.50;0.50;;;;;;;17.23;91.47;94518.41;4353830;32;20193;-64
2023/08/02 07:44:08;;;;;;;0.50;0.50;;;;;;;17.25;91.40;94521.47;4340387;32;20189;-64
2023/08/02 07:46:33;;;;;;;1.33;1.23;;;;;;;17.41;90.24;94518.72;4340905;32;20189;-64
2023/08/02 07:48:58;;;;;;;0.80;0.80;;;;;;;17.47;90.34;94523.41;4334739;32;20194;-66
2023/08/02 07:51:24;;;;;;;0.90;0.90;;;;;;;17.51;90.77;94521.56;4346270;32;20200;-67
2023/08/02 07:53:49;;;;;;;1.60;1.17;;;;;;;17.58;92.07;94522.84;4336107;32;20231;-67
2023/08/02 07:56:15;;;;;;;0.53;0.53;;;;;;;17.49;91.57;94533.78;4339716;32;20185;-67
2023/08/02 07:58:40;;;;;;;1.90;0.77;;;;;;;17.48;92.49;94541.06;4338153;32;20235;-66
2023/08/02 08:01:09;;;;;;;0.20;0.20;;;;;;;17.44;92.66;94534.09;4334108;32;20260;-67
2023/08/02 08:03:36;;;;;;;0.80;0.80;;;;;;;17.50;92.10;94527.28;4355309;32;20177;-67
2023/08/02 08:06:09;;;;;;;0.43;0.43;;;;;;;17.60;91.86;94524.03;4346920;32;20239;-67
2023/08/02 08:08:34;;;;;;;0.70;0.70;;;;;;;17.56;91.67;94530.47;4347985;32;20177;-67
2023/08/02 08:11:00;;;;;;;1.17;0.80;;;;;;;17.62;91.75;94531.72;4344517;32;20173;-66
2023/08/02 08:13:25;;;;;;;0.40;0.40;;;;;;;17.66;91.91;94528.00;4342933;32;20185;-67
2023/08/02 08:15:50;;;;;;;0.60;0.60;;;;;;;17.69;92.46;94519.22;4341044;32;20186;-67
2023/08/02 08:18:16;;;;;;;0.70;0.70;;;;;;;17.74;92.08;94521.63;4354847;32;20256;-67
2023/08/02 08:20:41;;;;;;;0.30;0.30;;;;;;;17.74;92.49;94510.88;4342867;32;20226;-67
2023/08/02 08:23:06;;;;;;;0.87;0.87;;;;;;;17.72;91.56;94510.47;4345149;32;20200;-65
2023/08/02 08:25:32;;;;;;;0.80;0.80;;;;;;;17.72;91.71;94507.78;4343416;32;20185;-64
2023/08/02 08:27:57;;;;;;;0.87;0.87;;;;;;;17.76;90.85;94505.16;4352465;32;20211;-65
2023/08/02 08:30:22;;;;;;;1.00;1.00;;;;;;;17.66;91.75;94497.72;4344996;32;20227;-65
2023/08/02 08:32:48;;;;;;;0.90;0.90;;;;;;;17.67;92.22;94496.56;4357152;32;20356;-65
2023/08/02 08:35:13;;;;;;;1.20;1.20;;;;;;;17.62;91.65;94505.69;4343849;32;20260;-65
2023/08/02 08:37:38;;;;;;;1.00;1.00;;;;;;;17.61;92.21;94490.72;4352879;32;20196;-65
2023/08/02 08:40:04;;;;;;;2.07;1.07;;;;;;;17.62;92.54;94491.50;4356647;32;20185;-65
2023/08/02 08:42:30;;;;;;;0.20;0.20;;;;;;;17.65;92.83;94488.91;4343623;32;20189;-65
2023/08/02 08:44:56;;;;;;;0.80;0.80;;;;;;;17.72;90.89;94497.03;4347293;32;20204;-65
2023/08/02 08:47:24;;;;;;;0.53;0.53;;;;;;;17.76;91.66;94492.53;4354708;32;20256;-65
2023/08/02 08:49:49;;;;;;;0.57;0.57;;;;;;;17.71;93.33;94482.09;4358852;32;20260;-65
2023/08/02 08:52:18;;;;;;;0.60;0.60;;;;;;;17.69;93.52;94484.34;4351278;32;20220;-65
2023/08/02 08:54:44;;;;;;;1.77;0.83;;;;;;;17.74;93.51;94489.41;4354209;32;20223;-65
2023/08/02 08:57:11;;;;;;;0.40;0.40;;;;;;;17.71;93.55;94490.13;4354883;32;20180;-66
2023/08/02 08:59:38;;;;;;;0.53;0.53;;;;;;;17.78;93.29;94490.25;4351866;32;20208;-65
2023/08/02 09:02:05;;;;;;;0.70;0.70;;;;;;;17.66;93.39;94493.13;4353827;32;20197;-65
2023/08/02 09:04:32;;;;;;;0.43;0.43;;;;;;;17.75;93.39;94490.19;4355932;32;20207;-64
2023/08/02 09:06:57;;;;;;;0.90;0.90;;;;;;;17.83;92.66;94491.88;4356130;32;20177;-65
2023/08/02 09:09:23;;;;;;;1.00;1.00;;;;;;;17.83;93.71;94489.97;4345971;32;20189;-65
2023/08/02 09:11:49;;;;;;;0.43;0.43;;;;;;;17.74;94.94;94488.63;4343217;32;20276;-65
2023/08/02 09:14:16;;;;;;;0.93;0.93;;;;;;;17.81;93.72;94489.53;4340622;32;20225;-65
2023/08/02 09:17:01;;;;;;;0.50;0.50;;;;;;;17.79;95.03;94481.06;4354265;32;20267;-65
2023/08/02 09:19:32;;;;;;;0.60;0.60;;;;;;;17.83;94.42;94471.19;4330448;32;20248;-65
2023/08/02 09:22:14;;;;;;;0.53;0.53;;;;;;;17.89;95.30;94482.34;4332608;32;20197;-65
2023/08/02 09:24:41;;;;;;;0.50;0.50;;;;;;;17.89;94.55;94477.00;4335959;32;20177;-65
2023/08/02 09:27:12;;;;;;;3.30;0.83;;;;;;;17.69;95.32;94475.53;4362389;32;20185;-65
2023/08/02 09:29:47;;;;;;;0.90;0.90;;;;;;;17.80;95.40;94474.56;4334849;32;20186;-66
2023/08/02 09:32:14;;;;;;;1.47;1.37;;;;;;;17.92;94.66;94470.13;4326094;32;20189;-67
2023/08/02 09:34:50;;;;;;;0.73;0.73;;;;;;;17.92;94.40;94468.22;4330184;32;20236;-67
2023/08/02 09:37:27;;;;;;;0.43;0.43;;;;;;;17.97;94.53;94465.25;4328333;32;20184;-66
2023/08/02 09:39:52;;;;;;;1.30;1.20;;;;;;;18.02;93.93;94467.63;4318537;32;20186;-66
2023/08/02 09:42:23;;;;;;;0.30;0.30;;;;;;;18.01;93.79;94460.72;4324479;32;20280;-66
2023/08/02 09:44:54;;;;;;;1.60;1.50;;;;;;;18.02;93.60;94459.56;4334178;32;22588;-67
2023/08/02 09:47:20;;;;;;;0.63;0.50;;;;;;;17.87;95.72;94451.69;4337983;32;20177;-67
2023/08/02 09:50:10;;;;;;;0.40;0.40;;;;;;;17.73;95.68;94434.22;4341125;32;20195;-66
2023/08/02 09:52:39;;;;;;;0.40;0.40;;;;;;;17.77;95.27;94440.41;4327716;32;20177;-66
2023/08/02 09:55:08;;;;;;;0.47;0.47;;;;;;;17.80;95.25;94445.06;4352180;32;20182;-66
2023/08/02 09:57:34;;;;;;;0.73;0.53;;;;;;;17.77;95.12;94448.47;4327790;32;20178;-66
2023/08/02 10:00:07;;;;;;;0.93;0.93;;;;;;;17.77;94.46;94442.31;4318591;32;20233;-66
2023/08/02 10:02:35;;;;;;;1.50;1.10;;;;;;;17.79;95.72;94443.50;4354216;32;20192;-66
2023/08/02 10:05:02;;;;;;;1.17;0.70;;;;;;;17.76;96.00;94438.09;4330379;32;20200;-66
2023/08/02 10:07:38;;;;;;;0.87;0.87;;;;;;;17.76;96.50;94424.66;4324867;32;20328;-66
2023/08/02 10:10:06;;;;;;;0.53;0.53;;;;;;;17.71;96.68;94412.31;4333386;32;20199;-67
2023/08/02 10:12:35;;;;;;;1.13;0.80;;;;;;;17.63;96.72;94409.88;4342273;32;20192;-66
2023/08/02 10:15:01;;;;;;;1.87;0.97;;;;;;;17.38;97.54;94396.09;4337260;32;20185;-66
2023/08/02 10:17:27;;;;;;;1.70;0.93;;;;;;;17.40;97.56;94391.13;4338966;32;20231;-66
2023/08/02 10:19:53;;;;;;;1.10;0.97;;;;;;;17.47;97.56;94383.97;4346256;32;20204;-66
2023/08/02 10:22:19;;;;;;;1.03;0.90;;;;;;;17.55;97.58;94386.75;4343348;32;20334;-66
2023/08/02 10:24:45;;;;;;;0.77;0.77;;;;;;;17.52;97.72;94375.63;4332655;32;20185;-67
2023/08/02 10:27:12;;;;;;;0.40;0.40;;;;;;;17.55;97.95;94358.03;4341675;32;20192;-67
2023/08/02 10:29:39;;;;;;;0.80;0.80;;;;;;;17.53;97.92;94360.28;4350175;32;20204;-66
2023/08/02 10:32:16;;;;;;;0.87;0.87;;;;;;;17.56;97.80;94342.72;4334797;32;20194;-66
2023/08/02 10:34:42;;;;;;;0.57;0.57;;;;;;;17.61;97.96;94340.50;4317971;32;20259;-67
2023/08/02 10:37:07;;;;;;;0.73;0.73;;;;;;;17.63;97.79;94330.19;4345761;32;20189;-66
2023/08/02 10:39:45;;;;;;;0.93;0.80;;;;;;;17.67;98.27;94322.97;4336573;32;20235;-66
2023/08/02 10:42:11;;;;;;;1.40;1.40;;;;;;;17.60;97.75;94320.19;4335779;32;20185;-67
2023/08/02 10:44:36;;;;;;;0.80;0.80;;;;;;;17.61;96.99;94321.72;4333604;32;20201;-66
2023/08/02 10:47:26;;;;;;;0.53;0.53;;;;;;;17.69;97.16;94311.88;4350528;32;20192;-66
2023/08/02 10:49:52;;;;;;;0.50;0.50;;;;;;;17.75;97.25;94303.16;4341895;32;20272;-66
2023/08/02 10:52:37;;;;;;;1.13;1.13;;;;;;;17.80;97.51;94297.47;4334930;32;20193;-66
2023/08/02 10:55:17;;;;;;;1.63;1.53;;;;;;;17.97;97.97;94293.47;4347851;32;20300;-66
2023/08/02 10:57:54;;;;;;;1.07;1.07;;;;;;;18.01;97.83;94282.78;4340686;32;20189;-66
2023/08/02 11:00:25;;;;;;;0.93;0.90;;;;;;;18.18;97.09;94274.16;4344801;32;20321;-66
2023/08/02 11:02:52;;;;;;;0.30;0.30;;;;;;;18.42;96.65;94270.19;4337130;32;20235;-66
2023/08/02 11:05:40;;;;;;;0.40;0.40;;;;;;;18.39;97.65;94260.94;4339444;32;20234;-67
2023/08/02 11:08:07;;;;;;;1.07;1.07;;;;;;;18.54;96.36;94257.25;4342030;32;20207;-66
2023/08/02 11:10:34;;;;;;;0.90;0.90;;;;;;;18.62;97.06;94247.37;4343693;32;20185;-66
2023/08/02 11:13:00;;;;;;;0.57;0.57;;;;;;;18.63;94.62;94234.72;4335648;32;20225;-66
2023/08/02 11:15:25;;;;;;;0.50;0.50;;;;;;;18.62;94.45;94230.50;4336813;32;20196;-66
2023/08/02 11:17:56;;;;;;;0.50;0.50;;;;;;;18.71;95.19;94239.78;4354367;32;20189;-66
2023/08/02 11:20:26;;;;;;;0.80;0.80;;;;;;;18.74;94.44;94230.97;4335288;32;20216;-66
2023/08/02 11:22:52;;;;;;;0.83;0.83;;;;;;;18.75;93.78;94219.09;4354641;32;20195;-66
2023/08/02 11:25:19;;;;;;;1.53;0.90;;;;;;;18.86;94.21;94221.88;4349258;32;20185;-66
2023/08/02 11:27:44;;;;;;;1.13;0.93;;;;;;;18.96;94.56;94223.84;4354871;32;20192;-67
2023/08/02 11:30:10;;;;;;;1.10;1.10;;;;;;;18.85;92.25;94218.41;4347142;32;20189;-67
2023/08/02 11:32:46;;;;;;;2.93;2.73;;;;;;;18.96;92.03;94207.72;4341877;32;20193;-66